Doss, Missouri
Current Conditions -  °F | °C
As of 10:58 AM on Thursday 27 Nov 2014 (Local Time) from KTBN Reporting Station
Overcast Overcast  
Wind Chill: 26°   Ceiling: 1600
Heat Index: 31°   Visibility: 10mi
Dew Point: 26°   Wind: 6mph
Humidity: 80%   Direction: 310°NW
Pressure: 30.49"   Gusts: NA
Location:  37.5023°N, 91.4546°W
Report Text: KTBN 271658Z AUTO 31005KT 10SM OVC016 00/M03 A3049 RMK AO2 SLP340 T10041035 $
Loading
Personal Weather Stations






























Interactive Weather Map New forecast layout! Learn more

10-Day Weather Forecast

Advertisements
Track Severe Weather on mobile